Time;durP1;ratioP1;P1;durP2;ratioP2;P2;SDS_P1;SDS_P2;PMS_P1;PMS_P2;Temp;Humidity;BMP_temperature;BMP_pressure;BME280_temperature;BME280_humidity;BME280_pressure;Samples;Min_cycle;Max_cycle;Signal;HPM_P1;HPM_P2
2021/12/14 00:00:16;;;;;;;1.15;0.55;;;17.30;54.20;;;;;;5062872;28;20156;-50
2021/12/14 00:02:47;;;;;;;0.40;0.40;;;17.30;54.10;;;;;;5079922;28;20044;-48
2021/12/14 00:05:15;;;;;;;0.95;0.57;;;17.30;54.10;;;;;;5069513;28;20055;-46
2021/12/14 00:07:43;;;;;;;0.75;0.73;;;17.20;54.00;;;;;;5067404;28;20040;-49
2021/12/14 00:10:28;;;;;;;1.02;0.40;;;17.20;54.00;;;;;;5067379;28;20040;-50
2021/12/14 00:13:03;;;;;;;1.05;0.57;;;17.20;54.00;;;;;;5074707;28;20043;-50
2021/12/14 00:15:31;;;;;;;0.50;0.28;;;17.20;54.00;;;;;;5061911;28;20035;-48
2021/12/14 00:18:03;;;;;;;0.30;0.30;;;17.20;54.00;;;;;;5062607;28;20500;-48
2021/12/14 00:20:35;;;;;;;1.38;0.50;;;17.20;54.00;;;;;;5081316;28;20451;-48
2021/12/14 00:25:51;;;;;;;0.60;0.50;;;17.20;53.90;;;;;;5068916;28;20509;-52
2021/12/14 00:28:23;;;;;;;1.83;0.63;;;17.20;53.90;;;;;;5067932;28;20385;-53
2021/12/14 00:30:51;;;;;;;0.65;0.20;;;17.20;53.90;;;;;;5073935;28;20091;-51
2021/12/14 00:33:23;;;;;;;0.68;0.30;;;17.20;53.90;;;;;;5031862;28;20040;-52
2021/12/14 00:35:51;;;;;;;0.50;0.20;;;17.20;53.90;;;;;;5063820;28;20052;-50
2021/12/14 00:38:22;;;;;;;0.35;0.15;;;17.20;53.90;;;;;;5052801;28;20041;-54
2021/12/14 00:40:53;;;;;;;0.22;0.20;;;17.20;53.80;;;;;;5064984;28;20044;-52
2021/12/14 00:43:21;;;;;;;0.30;0.25;;;17.20;53.80;;;;;;5062638;28;20056;-52
2021/12/14 00:45:48;;;;;;;0.45;0.20;;;17.20;53.80;;;;;;5056972;28;20036;-52
2021/12/14 00:48:16;;;;;;;0.15;0.13;;;17.20;53.80;;;;;;5055004;28;20033;-50
2021/12/14 00:50:47;;;;;;;0.40;0.40;;;17.20;53.80;;;;;;5061895;28;20041;-51
2021/12/14 00:53:14;;;;;;;1.63;0.28;;;17.20;53.80;;;;;;5050710;28;20048;-53
2021/12/14 00:55:46;;;;;;;0.68;0.30;;;17.20;53.70;;;;;;5068485;28;20416;-50
2021/12/14 00:58:14;;;;;;;0.35;0.20;;;17.20;53.70;;;;;;5064904;28;20457;-52
2021/12/14 01:00:48;;;;;;;0.22;0.22;;;17.20;53.80;;;;;;5067863;28;20036;-50
2021/12/14 01:03:16;;;;;;;0.20;0.10;;;17.20;53.80;;;;;;5047054;28;20040;-49
2021/12/14 01:05:49;;;;;;;0.40;0.20;;;17.20;53.80;;;;;;5079343;28;20055;-48
2021/12/14 01:08:19;;;;;;;0.22;0.20;;;17.20;53.70;;;;;;5063275;28;20509;-50
2021/12/14 01:10:51;;;;;;;0.20;0.20;;;17.20;53.80;;;;;;5067625;28;20131;-50
2021/12/14 01:13:22;;;;;;;0.40;0.20;;;17.20;53.80;;;;;;5066518;28;20036;-52
2021/12/14 01:16:01;;;;;;;0.45;0.20;;;17.10;53.70;;;;;;5055567;28;20131;-48
2021/12/14 01:18:34;;;;;;;0.20;0.20;;;17.20;53.80;;;;;;5050006;28;20036;-47
2021/12/14 01:21:13;;;;;;;0.38;0.10;;;17.10;53.70;;;;;;5043194;28;20082;-47
2021/12/14 01:23:43;;;;;;;0.20;0.10;;;17.20;53.80;;;;;;5076380;28;20232;-47
2021/12/14 01:26:13;;;;;;;0.20;0.10;;;17.10;53.70;;;;;;5049518;28;20090;-50
2021/12/14 01:28:43;;;;;;;0.30;0.10;;;17.10;53.70;;;;;;5065684;28;20036;-46
2021/12/14 01:31:20;;;;;;;0.40;0.20;;;17.10;53.70;;;;;;5065412;28;20043;-49
2021/12/14 01:33:50;;;;;;;0.25;0.20;;;17.20;53.70;;;;;;5072194;28;20131;-48
2021/12/14 01:36:27;;;;;;;0.20;0.20;;;17.10;53.70;;;;;;5047405;28;20037;-54
2021/12/14 01:39:21;;;;;;;0.40;0.40;;;17.10;53.60;;;;;;5048541;28;20056;-48
2021/12/14 01:41:53;;;;;;;0.10;0.10;;;17.10;53.60;;;;;;5076537;28;20044;-46
2021/12/14 01:44:21;;;;;;;0.10;0.10;;;17.10;53.70;;;;;;5050769;28;20110;-50
2021/12/14 01:46:55;;;;;;;0.20;0.10;;;17.10;53.60;;;;;;5061230;28;20117;-48
2021/12/14 01:49:42;;;;;;;0.30;0.10;;;17.10;53.60;;;;;;5071058;28;20044;-49
2021/12/14 01:52:34;;;;;;;0.30;0.20;;;17.10;53.60;;;;;;5064064;28;20044;-47
2021/12/14 01:55:05;;;;;;;0.10;0.10;;;17.10;53.60;;;;;;5070478;28;20115;-50
2021/12/14 01:57:34;;;;;;;0.20;0.10;;;17.10;53.60;;;;;;5079340;28;20040;-49
2021/12/14 02:00:02;;;;;;;0.10;0.10;;;17.10;53.50;;;;;;5047193;28;20509;-50
2021/12/14 02:02:44;;;;;;;0.10;0.10;;;17.20;53.60;;;;;;5066589;28;20494;-48
2021/12/14 02:05:19;;;;;;;0.35;0.20;;;17.20;53.60;;;;;;5063921;28;20036;-52
2021/12/14 02:07:48;;;;;;;0.10;0.10;;;17.20;53.50;;;;;;5071459;28;20032;-51
2021/12/14 02:10:22;;;;;;;0.20;0.10;;;17.10;53.50;;;;;;5052734;28;20072;-49
2021/12/14 02:12:50;;;;;;;0.20;0.20;;;17.10;53.50;;;;;;5070307;28;20067;-51
2021/12/14 02:15:20;;;;;;;0.20;0.20;;;17.20;53.50;;;;;;5078781;28;20040;-47
2021/12/14 02:17:50;;;;;;;0.40;0.32;;;17.20;53.50;;;;;;5051512;28;20056;-52
2021/12/14 02:20:23;;;;;;;1.10;0.10;;;17.20;53.50;;;;;;5057758;28;20121;-53
2021/12/14 02:22:52;;;;;;;0.10;0.10;;;17.20;53.40;;;;;;5061525;28;20036;-51
2021/12/14 02:25:19;;;;;;;1.42;0.50;;;17.20;53.40;;;;;;5055001;28;20051;-52
2021/12/14 02:27:50;;;;;;;0.10;0.10;;;17.20;53.40;;;;;;5069450;28;20455;-50
2021/12/14 02:30:21;;;;;;;0.10;0.10;;;17.20;53.40;;;;;;5051875;28;20037;-51
2021/12/14 02:32:49;;;;;;;0.10;0.10;;;17.20;53.40;;;;;;5064063;28;20044;-49
2021/12/14 02:35:20;;;;;;;0.30;0.10;;;17.20;53.40;;;;;;5056030;28;20517;-52
2021/12/14 02:37:51;;;;;;;0.80;0.20;;;17.20;53.30;;;;;;5072226;28;20596;-50
2021/12/14 02:40:32;;;;;;;0.10;0.10;;;17.20;53.30;;;;;;5075195;28;20127;-53
2021/12/14 02:43:02;;;;;;;0.10;0.10;;;17.20;53.30;;;;;;5059860;28;20070;-50
2021/12/14 02:45:30;;;;;;;0.28;0.10;;;17.20;53.30;;;;;;5066121;28;20519;-48
2021/12/14 02:47:57;;;;;;;0.15;0.10;;;17.10;53.20;;;;;;5052522;28;20124;-48
2021/12/14 02:50:26;;;;;;;0.10;0.10;;;17.20;53.30;;;;;;5065027;28;20151;-53
2021/12/14 02:52:53;;;;;;;0.20;0.10;;;17.20;53.30;;;;;;5049330;28;20044;-48
2021/12/14 02:55:26;;;;;;;0.20;0.10;;;17.20;53.20;;;;;;5063111;28;20509;-52
2021/12/14 02:57:58;;;;;;;0.10;0.10;;;17.20;53.20;;;;;;5065552;28;20127;-51
2021/12/14 03:00:29;;;;;;;1.08;0.10;;;17.20;53.20;;;;;;5049024;28;20455;-49
2021/12/14 03:02:57;;;;;;;0.20;0.10;;;17.20;53.20;;;;;;5065873;28;20043;-47
2021/12/14 03:05:28;;;;;;;1.67;0.22;;;17.20;53.20;;;;;;5049998;28;20036;-49
2021/12/14 03:07:58;;;;;;;0.10;0.10;;;17.20;53.20;;;;;;5067435;28;20048;-48
2021/12/14 03:10:39;;;;;;;0.30;0.28;;;17.20;53.20;;;;;;5063375;28;20124;-49
2021/12/14 03:13:10;;;;;;;0.10;0.10;;;17.20;53.10;;;;;;5045228;28;20063;-50
2021/12/14 03:15:46;;;;;;;0.57;0.30;;;17.20;53.10;;;;;;5032152;28;20402;-47
2021/12/14 03:18:17;;;;;;;0.20;0.20;;;17.20;53.20;;;;;;5058189;28;20041;-52
2021/12/14 03:20:46;;;;;;;0.45;0.45;;;17.20;53.10;;;;;;5068721;28;20156;-53
2021/12/14 03:23:17;;;;;;;0.40;0.10;;;17.20;53.10;;;;;;5065824;28;20048;-51
2021/12/14 03:25:49;;;;;;;0.20;0.20;;;17.20;53.10;;;;;;5072764;28;20082;-51
2021/12/14 03:28:19;;;;;;;0.20;0.20;;;17.20;53.10;;;;;;5071962;28;20127;-47
2021/12/14 03:30:56;;;;;;;0.30;0.28;;;17.20;53.10;;;;;;5045716;28;20032;-50
2021/12/14 03:33:26;;;;;;;0.30;0.30;;;17.20;53.00;;;;;;5048396;28;20037;-52
2021/12/14 03:35:57;;;;;;;0.30;0.30;;;17.20;53.00;;;;;;5060664;28;20504;-53
2021/12/14 03:38:28;;;;;;;0.30;0.20;;;17.20;53.00;;;;;;5053236;28;20533;-52
2021/12/14 03:41:06;;;;;;;0.20;0.15;;;17.20;53.00;;;;;;5065252;28;20052;-50
2021/12/14 03:43:34;;;;;;;0.17;0.10;;;17.20;53.00;;;;;;5066334;28;20080;-50
2021/12/14 03:46:02;;;;;;;0.88;0.30;;;17.20;53.00;;;;;;5055907;28;20047;-54
2021/12/14 03:48:34;;;;;;;0.30;0.30;;;17.20;53.00;;;;;;5060826;28;20501;-50
2021/12/14 03:51:02;;;;;;;0.50;0.20;;;17.20;52.90;;;;;;5056152;28;20116;-49
2021/12/14 03:53:30;;;;;;;0.88;0.22;;;17.20;52.90;;;;;;5051527;28;20047;-47
2021/12/14 03:56:01;;;;;;;0.30;0.30;;;17.20;52.90;;;;;;5048007;28;20413;-50
2021/12/14 03:58:35;;;;;;;0.15;0.10;;;17.20;52.90;;;;;;5052666;28;20040;-48
2021/12/14 04:01:08;;;;;;;0.30;0.30;;;17.20;52.90;;;;;;5048994;28;20047;-46
2021/12/14 04:03:41;;;;;;;0.28;0.28;;;17.20;52.90;;;;;;5074224;28;20100;-46
2021/12/14 04:06:21;;;;;;;0.22;0.20;;;17.20;52.90;;;;;;5048686;28;20047;-51
2021/12/14 04:08:50;;;;;;;0.43;0.43;;;17.10;52.80;;;;;;5047329;28;20040;-49
2021/12/14 04:11:20;;;;;;;0.50;0.30;;;17.20;52.90;;;;;;5062300;28;20040;-50
2021/12/14 04:13:49;;;;;;;0.30;0.20;;;17.20;52.80;;;;;;5049105;28;20111;-50
2021/12/14 04:16:28;;;;;;;0.40;0.22;;;17.20;52.80;;;;;;5066882;28;20040;-52
2021/12/14 04:19:03;;;;;;;0.40;0.40;;;17.20;52.80;;;;;;5030337;28;20543;-47
2021/12/14 04:21:31;;;;;;;0.30;0.17;;;17.20;52.80;;;;;;5077056;28;20040;-51
2021/12/14 04:23:58;;;;;;;0.55;0.30;;;17.20;52.80;;;;;;5046985;28;20116;-53
2021/12/14 04:26:27;;;;;;;0.32;0.20;;;17.20;53.40;;;;;;5069495;28;20110;-52
2021/12/14 04:28:57;;;;;;;0.45;0.38;;;17.20;52.80;;;;;;5054363;28;20044;-51
2021/12/14 04:31:25;;;;;;;0.30;0.30;;;17.20;52.80;;;;;;5068264;28;20123;-51
2021/12/14 04:33:55;;;;;;;0.50;0.32;;;17.20;52.80;;;;;;5066495;28;20056;-52
2021/12/14 04:36:26;;;;;;;0.30;0.20;;;17.20;53.30;;;;;;5043766;28;20540;-47
2021/12/14 04:38:59;;;;;;;0.30;0.25;;;17.20;52.80;;;;;;5048729;28;20116;-51
2021/12/14 04:52:35;;;;;;;0.30;0.17;;;17.10;52.80;;;;;;5048279;28;20051;-53
2021/12/14 04:55:07;;;;;;;0.40;0.20;;;17.10;52.80;;;;;;5063571;28;20554;-50
2021/12/14 04:57:38;;;;;;;0.10;0.10;;;17.10;52.90;;;;;;5055714;28;20094;-50
2021/12/14 05:00:19;;;;;;;0.45;0.20;;;17.10;52.80;;;;;;5042573;28;20043;-48
2021/12/14 05:02:56;;;;;;;0.30;0.20;;;17.20;52.80;;;;;;5045067;28;20056;-48
2021/12/14 05:05:39;;;;;;;0.10;0.10;;;17.10;52.80;;;;;;5063702;28;20055;-50
2021/12/14 05:10:56;;;;;;;0.45;0.43;;;17.10;52.80;;;;;;5066575;28;20572;-46
2021/12/14 05:13:26;;;;;;;0.68;0.20;;;17.10;52.80;;;;;;5067465;28;20040;-49
2021/12/14 05:15:54;;;;;;;0.17;0.10;;;17.10;52.90;;;;;;5073218;28;20150;-50
2021/12/14 05:18:23;;;;;;;0.20;0.10;;;17.10;52.80;;;;;;5052104;28;20110;-58
2021/12/14 05:20:52;;;;;;;0.30;0.10;;;17.10;52.80;;;;;;5049485;28;20071;-50
2021/12/14 05:23:21;;;;;;;0.63;0.45;;;17.10;52.80;;;;;;5065486;28;20048;-49
2021/12/14 05:25:49;;;;;;;0.22;0.10;;;17.10;52.80;;;;;;5068630;28;20041;-47
2021/12/14 05:28:19;;;;;;;0.88;0.25;;;17.10;52.80;;;;;;5071323;28;20039;-49
2021/12/14 05:30:52;;;;;;;0.20;0.10;;;17.10;52.80;;;;;;5052108;28;20044;-50
2021/12/14 05:33:27;;;;;;;0.20;0.10;;;17.10;52.80;;;;;;5041274;28;20037;-49
2021/12/14 05:35:59;;;;;;;0.20;0.20;;;17.10;52.80;;;;;;5066153;28;20052;-58
2021/12/14 05:38:41;;;;;;;0.20;0.20;;;17.20;52.80;;;;;;5077456;28;20040;-51
2021/12/14 05:44:12;;;;;;;0.22;0.20;;;17.10;52.80;;;;;;5052970;28;20080;-48
2021/12/14 05:46:50;;;;;;;;;;;17.10;52.80;;;;;;5060151;28;20442;-49
2021/12/14 05:49:32;;;;;;;0.22;0.10;;;17.10;52.80;;;;;;5053336;28;19921;-51
2021/12/14 05:52:01;;;;;;;0.20;0.20;;;17.10;52.90;;;;;;5056668;28;20044;-50
2021/12/14 05:54:33;;;;;;;0.20;0.10;;;17.10;52.90;;;;;;5053694;28;20040;-51
2021/12/14 05:57:04;;;;;;;0.50;0.30;;;17.10;52.80;;;;;;5061966;28;20056;-50
2021/12/14 05:59:34;;;;;;;0.20;0.20;;;17.10;52.80;;;;;;5065496;28;20045;-52
2021/12/14 06:02:08;;;;;;;0.30;0.15;;;17.10;52.80;;;;;;5067972;28;20106;-48
2021/12/14 06:04:39;;;;;;;0.30;0.20;;;17.10;52.70;;;;;;5074319;28;20044;-53
2021/12/14 06:07:07;;;;;;;0.30;0.10;;;17.10;52.80;;;;;;5074913;28;20032;-52
2021/12/14 06:09:38;;;;;;;0.38;0.30;;;17.10;52.70;;;;;;5045307;28;20524;-51
2021/12/14 06:12:15;;;;;;;0.20;0.10;;;17.20;52.80;;;;;;5050173;28;20052;-51
2021/12/14 06:14:51;;;;;;;0.30;0.30;;;17.20;52.70;;;;;;5062685;28;20118;-53
2021/12/14 06:17:23;;;;;;;;;;;17.10;52.70;;;;;;5050891;28;20052;-51
2021/12/14 06:19:53;;;;;;;0.20;0.13;;;17.10;52.70;;;;;;5057889;28;19976;-50
2021/12/14 06:22:22;;;;;;;0.40;0.35;;;17.10;52.80;;;;;;5051148;28;20210;-46
2021/12/14 06:24:53;;;;;;;0.57;0.20;;;17.10;52.80;;;;;;5053590;28;20128;-51
2021/12/14 06:27:26;;;;;;;0.20;0.10;;;17.10;53.40;;;;;;5039438;28;20041;-53
2021/12/14 06:29:57;;;;;;;0.30;0.20;;;17.10;52.70;;;;;;5062921;28;20037;-50
2021/12/14 06:32:28;;;;;;;0.40;0.20;;;17.10;52.70;;;;;;5064995;28;20051;-50
2021/12/14 06:34:59;;;;;;;0.30;0.30;;;17.10;52.70;;;;;;5066551;28;20044;-51
2021/12/14 06:40:39;;;;;;;0.30;0.30;;;17.20;53.20;;;;;;5034371;28;20524;-47
2021/12/14 06:43:10;;;;;;;0.20;0.20;;;17.10;52.70;;;;;;5072329;28;20134;-49
2021/12/14 06:45:42;;;;;;;0.20;0.20;;;17.10;52.60;;;;;;5050744;28;20090;-49
2021/12/14 06:48:16;;;;;;;0.25;0.17;;;17.10;52.60;;;;;;5065332;28;20481;-52
2021/12/14 06:50:46;;;;;;;0.20;0.20;;;17.10;52.60;;;;;;5063523;28;20047;-47
2021/12/14 06:53:27;;;;;;;1.05;0.13;;;17.10;52.70;;;;;;5054330;28;20045;-47
2021/12/14 06:56:21;;;;;;;0.15;0.15;;;17.10;52.60;;;;;;5009643;28;20070;-49
2021/12/14 06:59:17;;;;;;;0.90;0.17;;;17.10;52.70;;;;;;5022601;28;20876;-53
2021/12/14 07:02:09;;;;;;;0.40;0.10;;;17.10;52.70;;;;;;4963247;28;20086;-51
2021/12/14 07:05:07;;;;;;;0.20;0.10;;;17.10;52.70;;;;;;4954281;28;20061;-49
2021/12/14 07:07:40;;;;;;;0.20;0.20;;;17.10;52.70;;;;;;4943191;28;20206;-48
2021/12/14 07:10:13;;;;;;;0.40;0.10;;;17.10;52.70;;;;;;4944582;28;20043;-50
2021/12/14 07:12:41;;;;;;;0.10;0.10;;;17.00;52.60;;;;;;4960880;28;20047;-50
2021/12/14 07:15:20;;;;;;;0.77;0.10;;;17.10;52.60;;;;;;4962345;28;20059;-52
2021/12/14 07:17:54;;;;;;;0.40;0.10;;;17.10;52.60;;;;;;4962961;28;20051;-52
2021/12/14 07:20:33;;;;;;;0.30;0.20;;;17.10;52.60;;;;;;4964194;28;20046;-50
2021/12/14 07:23:04;;;;;;;0.45;0.10;;;17.10;52.60;;;;;;4961821;28;20130;-46
2021/12/14 07:25:33;;;;;;;0.10;0.10;;;17.10;52.60;;;;;;4954842;28;20050;-52
2021/12/14 07:28:05;;;;;;;0.20;0.13;;;17.10;52.60;;;;;;4948227;28;20058;-53
2021/12/14 07:30:35;;;;;;;0.25;0.25;;;17.10;52.60;;;;;;4961114;28;20222;-53
2021/12/14 07:33:05;;;;;;;0.10;0.10;;;17.10;52.60;;;;;;4959764;28;20504;-52
2021/12/14 07:35:47;;;;;;;0.30;0.30;;;17.10;52.60;;;;;;4977392;28;20053;-50
2021/12/14 07:38:43;;;;;;;0.40;0.20;;;17.10;52.60;;;;;;4976651;28;20054;-53
2021/12/14 07:41:19;;;;;;;1.55;0.10;;;17.00;52.50;;;;;;5072118;28;20044;-50
2021/12/14 07:43:52;;;;;;;0.87;0.10;;;17.00;52.50;;;;;;5076754;28;20244;-51
2021/12/14 07:46:29;;;;;;;0.32;0.32;;;17.00;52.60;;;;;;5058861;28;20035;-50
2021/12/14 07:48:57;;;;;;;;;;;17.00;52.60;;;;;;5077144;28;20132;-53
2021/12/14 07:51:28;;;;;;;0.20;0.10;;;17.00;52.50;;;;;;5068732;28;19950;-53
2021/12/14 07:54:01;;;;;;;0.10;0.10;;;17.00;52.70;;;;;;5079239;28;20064;-52
2021/12/14 07:56:32;;;;;;;0.82;0.25;;;17.00;52.60;;;;;;5080819;28;20098;-51
2021/12/14 07:59:02;;;;;;;0.55;0.25;;;17.00;52.60;;;;;;5072349;28;20045;-50
2021/12/14 08:01:29;;;;;;;0.30;0.20;;;17.00;52.60;;;;;;5074557;28;20046;-49
2021/12/14 08:04:07;;;;;;;1.27;0.20;;;17.00;52.60;;;;;;5076112;28;20043;-51
2021/12/14 08:06:49;;;;;;;0.77;0.10;;;17.00;52.50;;;;;;5063031;28;20043;-52
2021/12/14 08:09:34;;;;;;;0.20;0.20;;;17.00;52.50;;;;;;5062227;28;20041;-54
2021/12/14 08:12:02;;;;;;;0.52;0.20;;;17.00;52.50;;;;;;5077375;28;20221;-49
2021/12/14 08:14:30;;;;;;;1.55;0.10;;;17.00;52.60;;;;;;5068159;28;20055;-52
2021/12/14 08:17:00;;;;;;;0.43;0.20;;;17.00;52.60;;;;;;5069424;28;20049;-53
2021/12/14 08:19:33;;;;;;;0.35;0.25;;;17.00;52.60;;;;;;5069738;28;20039;-53
2021/12/14 08:22:08;;;;;;;0.55;0.20;;;17.00;52.60;;;;;;5065405;28;20118;-51
2021/12/14 08:24:37;;;;;;;0.40;0.30;;;17.00;52.60;;;;;;5062316;28;20046;-51
2021/12/14 08:27:08;;;;;;;0.32;0.32;;;17.00;52.60;;;;;;5056984;28;20033;-51
2021/12/14 08:29:37;;;;;;;0.90;0.30;;;17.00;52.60;;;;;;5077955;28;20048;-52
2021/12/14 08:32:12;;;;;;;1.00;0.30;;;17.00;52.60;;;;;;5067943;28;20041;-49
2021/12/14 08:34:42;;;;;;;1.52;0.50;;;17.00;52.50;;;;;;5068427;28;20451;-50
2021/12/14 08:37:13;;;;;;;0.15;0.10;;;17.00;52.50;;;;;;5066043;28;20040;-53
2021/12/14 08:39:44;;;;;;;0.80;0.20;;;17.00;52.50;;;;;;5061638;28;20070;-50
2021/12/14 08:42:16;;;;;;;1.05;0.30;;;17.00;52.50;;;;;;5065332;28;20043;-52
2021/12/14 08:44:53;;;;;;;2.17;0.20;;;17.00;52.50;;;;;;5066386;28;20048;-50
2021/12/14 08:47:28;;;;;;;0.50;0.38;;;17.00;52.50;;;;;;5079662;28;20093;-50
2021/12/14 08:49:58;;;;;;;2.08;0.75;;;17.10;52.50;;;;;;5064764;28;20047;-53
2021/12/14 08:52:26;;;;;;;1.38;0.30;;;17.00;52.50;;;;;;5067577;28;20036;-50
2021/12/14 08:54:54;;;;;;;0.30;0.30;;;17.00;52.50;;;;;;5063106;28;20060;-46
2021/12/14 08:57:23;;;;;;;1.25;0.73;;;17.10;52.50;;;;;;5057832;28;20436;-53
2021/12/14 08:59:55;;;;;;;1.75;0.85;;;17.10;53.10;;;;;;5065464;28;20048;-46
2021/12/14 09:02:24;;;;;;;1.55;1.08;;;17.10;52.50;;;;;;5070643;28;20118;-50
2021/12/14 09:04:54;;;;;;;1.05;0.55;;;17.10;52.50;;;;;;5053081;28;20040;-50
2021/12/14 09:07:24;;;;;;;1.85;0.47;;;17.10;52.50;;;;;;5069901;28;20078;-50
2021/12/14 09:09:53;;;;;;;0.73;0.50;;;17.10;53.00;;;;;;5065289;28;20118;-48
2021/12/14 09:12:25;;;;;;;1.05;0.50;;;17.10;52.50;;;;;;5061611;28;20183;-51
2021/12/14 09:14:55;;;;;;;0.80;0.52;;;17.10;52.40;;;;;;5078165;28;20489;-51
2021/12/14 09:17:23;;;;;;;1.10;0.90;;;17.10;52.40;;;;;;5069069;28;20052;-48
2021/12/14 09:19:54;;;;;;;0.98;0.57;;;17.10;52.40;;;;;;5067447;28;20037;-52
2021/12/14 09:22:26;;;;;;;1.23;0.57;;;17.10;52.30;;;;;;5061172;28;20032;-49
2021/12/14 09:24:55;;;;;;;1.60;1.20;;;17.10;52.30;;;;;;5064790;28;20044;-52
2021/12/14 09:27:27;;;;;;;2.25;0.95;;;17.20;52.30;;;;;;5066195;28;20036;-52
2021/12/14 09:29:56;;;;;;;1.08;0.77;;;17.20;52.30;;;;;;5045322;28;20048;-52
2021/12/14 09:32:27;;;;;;;1.05;0.80;;;17.20;52.30;;;;;;5079820;28;20036;-52
2021/12/14 09:34:55;;;;;;;0.88;0.85;;;17.20;52.30;;;;;;5065837;28;20040;-50
2021/12/14 09:37:24;;;;;;;3.05;1.15;;;17.20;52.30;;;;;;5072321;28;20040;-48
2021/12/14 09:40:02;;;;;;;1.38;0.80;;;17.20;52.20;;;;;;5056176;28;20048;-51
2021/12/14 09:42:34;;;;;;;1.38;1.23;;;17.20;52.20;;;;;;5075736;28;20416;-50
2021/12/14 09:45:08;;;;;;;2.58;1.15;;;17.20;52.20;;;;;;5063193;28;20395;-51
2021/12/14 09:47:35;;;;;;;0.98;0.80;;;17.20;52.20;;;;;;5062770;28;20084;-52
2021/12/14 09:50:09;;;;;;;3.65;1.42;;;17.20;52.20;;;;;;5066422;28;20044;-52
2021/12/14 09:52:38;;;;;;;1.92;1.33;;;17.20;52.10;;;;;;5064599;28;20040;-51
2021/12/14 09:55:12;;;;;;;2.67;1.27;;;17.20;52.10;;;;;;5065891;28;20130;-51
2021/12/14 09:57:42;;;;;;;4.30;1.38;;;17.20;52.00;;;;;;5074894;28;20530;-48
2021/12/14 10:00:15;;;;;;;1.02;0.70;;;17.20;52.00;;;;;;5067485;28;20041;-47
2021/12/14 10:02:46;;;;;;;1.20;1.02;;;17.20;52.00;;;;;;5065926;28;20052;-53
2021/12/14 10:05:17;;;;;;;1.58;1.48;;;17.30;52.00;;;;;;5076716;28;20050;-51
2021/12/14 10:07:46;;;;;;;1.65;1.13;;;17.30;52.00;;;;;;5066165;28;20032;-49
2021/12/14 10:10:17;;;;;;;2.13;1.55;;;17.30;52.00;;;;;;5068332;28;20043;-49
2021/12/14 10:12:50;;;;;;;1.52;1.42;;;17.30;52.00;;;;;;5067032;28;20036;-53
2021/12/14 10:15:26;;;;;;;1.50;1.38;;;17.30;51.90;;;;;;5077681;28;20049;-49
2021/12/14 10:17:56;;;;;;;1.67;1.58;;;17.30;51.90;;;;;;5065491;28;26278;-51
2021/12/14 10:20:30;;;;;;;2.83;1.30;;;17.30;51.90;;;;;;5072847;28;20119;-49
2021/12/14 10:22:59;;;;;;;1.80;1.40;;;17.40;51.90;;;;;;5078053;28;20688;-51
2021/12/14 10:25:28;;;;;;;4.20;1.75;;;17.30;51.90;;;;;;5069878;28;20049;-52
2021/12/14 10:27:57;;;;;;;2.47;1.33;;;17.30;51.80;;;;;;5068972;28;20076;-54
2021/12/14 10:30:29;;;;;;;1.52;1.42;;;17.30;51.80;;;;;;5065968;28;20041;-50
2021/12/14 10:32:57;;;;;;;1.58;1.48;;;17.30;51.70;;;;;;5080205;28;20151;-52
2021/12/14 10:35:30;;;;;;;2.95;0.88;;;17.30;51.70;;;;;;5072241;28;20048;-51
2021/12/14 10:38:07;;;;;;;1.15;0.70;;;17.40;51.80;;;;;;5068268;28;20516;-50
2021/12/14 10:43:24;;;;;;;1.38;1.02;;;17.40;51.80;;;;;;5072031;28;20044;-52
2021/12/14 10:45:55;;;;;;;2.17;1.40;;;17.40;51.80;;;;;;5049996;28;20560;-53
2021/12/14 10:48:30;;;;;;;2.58;1.50;;;17.40;51.80;;;;;;5065301;28;20512;-50
2021/12/14 10:51:00;;;;;;;2.65;1.20;;;17.40;51.80;;;;;;5079155;28;20043;-47
2021/12/14 10:53:27;;;;;;;1.88;1.52;;;17.40;51.80;;;;;;5073010;28;20143;-46
2021/12/14 10:56:11;;;;;;;1.75;1.38;;;17.40;51.80;;;;;;5065206;28;20044;-48
2021/12/14 10:58:39;;;;;;;1.85;0.93;;;17.40;51.70;;;;;;5072984;28;20056;-52
2021/12/14 11:01:11;;;;;;;2.42;1.13;;;17.50;51.70;;;;;;5074317;28;20059;-49
2021/12/14 11:03:44;;;;;;;1.15;1.02;;;17.40;51.60;;;;;;5064832;28;20033;-49
2021/12/14 11:06:13;;;;;;;1.75;1.38;;;17.40;51.60;;;;;;5064179;28;20047;-47
2021/12/14 11:08:49;;;;;;;2.72;2.42;;;17.40;51.50;;;;;;5070674;28;20523;-48
2021/12/14 11:11:21;;;;;;;2.70;1.52;;;17.40;51.50;;;;;;5070920;28;20402;-48
2021/12/14 11:13:55;;;;;;;2.28;1.52;;;17.50;52.20;;;;;;5064352;28;20037;-53
2021/12/14 11:18:07;;;;;;;1.10;1.00;;;17.50;51.60;;;;;;5070010;28;20050;-49
2021/12/14 11:19:19;;;;;;;2.95;1.25;;;17.50;51.50;;;;;;5071526;28;20036;-51
2021/12/14 11:21:47;;;;;;;2.15;1.23;;;17.50;51.60;;;;;;5063899;28;20038;-50
2021/12/14 11:24:14;;;;;;;2.88;2.30;;;17.50;51.50;;;;;;5064322;28;20036;-50
2021/12/14 11:26:44;;;;;;;1.88;1.50;;;17.50;52.00;;;;;;5081689;28;20958;-50
2021/12/14 11:29:15;;;;;;;2.13;1.38;;;17.50;51.40;;;;;;5069909;28;20090;-53
2021/12/14 11:31:46;;;;;;;1.95;1.23;;;17.50;51.40;;;;;;5063774;28;20043;-52
2021/12/14 11:34:16;;;;;;;1.55;1.42;;;17.50;51.40;;;;;;5068642;28;20036;-53
2021/12/14 11:36:46;;;;;;;3.40;1.02;;;17.60;51.40;;;;;;5076257;28;20036;-51
2021/12/14 11:39:23;;;;;;;1.98;1.00;;;17.60;51.90;;;;;;5063042;28;20041;-46
2021/12/14 11:41:56;;;;;;;2.90;1.50;;;17.60;51.40;;;;;;5064485;28;20147;-47
2021/12/14 11:44:26;;;;;;;2.45;1.63;;;17.60;51.30;;;;;;5081047;28;20039;-46
2021/12/14 11:46:59;;;;;;;1.70;1.38;;;17.60;51.30;;;;;;5067030;28;20123;-45
2021/12/14 11:49:39;;;;;;;1.17;1.08;;;17.60;51.30;;;;;;5063240;28;20048;-51
2021/12/14 11:52:07;;;;;;;1.48;0.93;;;17.60;51.30;;;;;;5067738;28;20089;-48
2021/12/14 11:54:42;;;;;;;1.23;1.10;;;17.60;51.20;;;;;;5076176;28;20040;-52
2021/12/14 11:57:12;;;;;;;2.17;1.50;;;17.60;51.20;;;;;;5067277;28;20045;-51
2021/12/14 11:59:39;;;;;;;3.10;1.58;;;17.60;51.20;;;;;;5069005;28;20256;-50
2021/12/14 12:02:07;;;;;;;2.55;1.52;;;17.60;51.20;;;;;;5076904;28;20047;-52
2021/12/14 12:04:36;;;;;;;2.00;1.40;;;17.60;51.20;;;;;;5067999;28;20040;-50
2021/12/14 12:09:56;;;;;;;1.45;1.02;;;17.60;51.10;;;;;;5058855;28;20530;-48
2021/12/14 12:12:29;;;;;;;3.53;1.42;;;17.60;51.10;;;;;;5073398;28;20047;-52
2021/12/14 12:14:59;;;;;;;2.72;1.40;;;17.60;51.10;;;;;;5064659;28;20136;-52
2021/12/14 12:17:34;;;;;;;2.35;1.35;;;17.70;51.20;;;;;;5071447;28;20469;-49
2021/12/14 12:20:13;;;;;;;3.20;1.38;;;17.70;51.10;;;;;;5076147;28;20158;-49
2021/12/14 12:22:44;;;;;;;1.60;1.50;;;17.60;51.10;;;;;;5067742;28;20044;-49
2021/12/14 12:25:13;;;;;;;2.08;1.58;;;17.60;51.10;;;;;;5068534;28;20036;-51
2021/12/14 12:27:46;;;;;;;1.55;1.40;;;17.70;51.10;;;;;;5062352;28;20037;-54
2021/12/14 12:30:33;;;;;;;2.80;1.30;;;17.70;51.10;;;;;;5056209;28;20083;-51
2021/12/14 12:33:05;;;;;;;3.95;1.95;;;17.70;51.10;;;;;;5064123;28;20485;-51
2021/12/14 12:35:36;;;;;;;2.10;1.88;;;17.70;51.10;;;;;;5066564;28;20131;-52
2021/12/14 12:38:23;;;;;;;1.42;1.08;;;17.70;51.10;;;;;;5068927;28;20060;-48
2021/12/14 12:40:53;;;;;;;1.67;1.27;;;17.70;51.00;;;;;;5064262;28;20153;-51
2021/12/14 12:43:30;;;;;;;1.48;1.17;;;17.70;51.00;;;;;;5062859;28;20044;-50
2021/12/14 12:46:13;;;;;;;3.42;1.65;;;17.70;51.00;;;;;;5059499;28;20037;-53
2021/12/14 12:49:09;;;;;;;1.95;1.55;;;17.70;51.00;;;;;;5075437;28;20514;-52
2021/12/14 12:51:56;;;;;;;2.63;1.88;;;17.70;50.90;;;;;;5062687;28;20036;-50
2021/12/14 12:54:35;;;;;;;2.17;1.50;;;17.70;51.00;;;;;;5061992;28;20028;-53
2021/12/14 12:57:16;;;;;;;1.30;1.20;;;17.70;51.00;;;;;;5061741;28;20087;-52
2021/12/14 12:59:50;;;;;;;3.13;1.88;;;17.70;51.00;;;;;;5061751;28;20063;-48
2021/12/14 13:02:21;;;;;;;2.30;2.10;;;17.70;51.00;;;;;;5068883;28;20063;-51
2021/12/14 13:04:51;;;;;;;2.15;1.73;;;17.70;51.00;;;;;;5071100;28;20046;-46
2021/12/14 13:07:19;;;;;;;1.88;1.48;;;17.80;51.00;;;;;;5068522;28;20123;-50
2021/12/14 13:10:01;;;;;;;1.50;1.40;;;17.80;50.90;;;;;;5067635;28;20082;-52
2021/12/14 13:12:39;;;;;;;2.10;1.90;;;17.90;50.90;;;;;;5061444;28;20066;-51
2021/12/14 13:15:42;;;;;;;1.73;1.35;;;17.90;50.80;;;;;;5059590;28;20041;-52
2021/12/14 13:18:29;;;;;;;1.58;1.23;;;17.90;50.70;;;;;;5061140;28;20094;-47
2021/12/14 13:21:00;;;;;;;1.85;1.75;;;17.90;50.80;;;;;;5062816;28;20033;-50
2021/12/14 13:23:51;;;;;;;2.88;1.75;;;17.80;50.70;;;;;;5080776;28;20048;-47
2021/12/14 13:26:30;;;;;;;2.85;1.73;;;17.90;50.70;;;;;;5069167;28;20068;-50
2021/12/14 13:29:02;;;;;;;1.63;1.52;;;17.90;50.60;;;;;;5067649;28;20560;-50
2021/12/14 13:31:33;;;;;;;2.70;1.55;;;17.90;50.70;;;;;;5068508;28;20044;-51
2021/12/14 13:34:02;;;;;;;2.17;1.75;;;17.90;50.60;;;;;;5072770;28;20130;-51
2021/12/14 13:36:30;;;;;;;1.83;1.63;;;17.90;50.60;;;;;;5066965;28;20611;-49
2021/12/14 13:38:57;;;;;;;2.45;1.50;;;17.90;50.50;;;;;;5064440;28;20135;-54
2021/12/14 13:41:41;;;;;;;3.13;1.65;;;17.90;50.60;;;;;;5084044;28;20565;-51
2021/12/14 13:44:08;;;;;;;1.50;1.40;;;18.00;50.50;;;;;;5072788;28;20219;-48